sensor_id;sensor_type;location;lat;lon;timestamp;P1;durP1;ratioP1;P2;durP2;ratioP2
51836;SDS011;38941;53.254;6.600;2023-11-22T00:00:55;6.30;;;3.35;;
51836;SDS011;38941;53.254;6.600;2023-11-22T00:02:56;7.00;;;4.22;;
51836;SDS011;38941;53.254;6.600;2023-11-22T00:04:57;6.97;;;4.28;;
51836;SDS011;38941;53.254;6.600;2023-11-22T00:06:58;7.57;;;4.00;;
51836;SDS011;38941;53.254;6.600;2023-11-22T00:08:58;7.38;;;3.78;;
51836;SDS011;38941;53.254;6.600;2023-11-22T00:11:01;8.35;;;3.75;;
51836;SDS011;38941;53.254;6.600;2023-11-22T00:13:02;8.10;;;4.55;;
51836;SDS011;38941;53.254;6.600;2023-11-22T00:15:05;9.60;;;4.25;;
51836;SDS011;38941;53.254;6.600;2023-11-22T00:17:11;6.47;;;3.57;;
51836;SDS011;38941;53.254;6.600;2023-11-22T00:19:12;9.02;;;4.15;;
51836;SDS011;38941;53.254;6.600;2023-11-22T00:21:15;7.82;;;3.80;;
51836;SDS011;38941;53.254;6.600;2023-11-22T00:23:17;8.70;;;3.70;;
51836;SDS011;38941;53.254;6.600;2023-11-22T00:25:18;7.75;;;4.03;;
51836;SDS011;38941;53.254;6.600;2023-11-22T00:27:19;10.25;;;4.22;;
51836;SDS011;38941;53.254;6.600;2023-11-22T00:29:20;12.18;;;4.03;;
51836;SDS011;38941;53.254;6.600;2023-11-22T00:31:21;7.53;;;4.35;;
51836;SDS011;38941;53.254;6.600;2023-11-22T00:33:21;8.30;;;4.43;;
51836;SDS011;38941;53.254;6.600;2023-11-22T00:35:23;9.73;;;3.95;;
51836;SDS011;38941;53.254;6.600;2023-11-22T00:37:24;9.25;;;4.35;;
51836;SDS011;38941;53.254;6.600;2023-11-22T00:39:24;7.60;;;4.00;;
51836;SDS011;38941;53.254;6.600;2023-11-22T00:41:29;6.72;;;3.95;;
51836;SDS011;38941;53.254;6.600;2023-11-22T00:43:31;6.70;;;3.70;;
51836;SDS011;38941;53.254;6.600;2023-11-22T00:45:32;10.15;;;4.10;;
51836;SDS011;38941;53.254;6.600;2023-11-22T00:47:34;7.10;;;3.85;;
51836;SDS011;38941;53.254;6.600;2023-11-22T00:49:36;9.27;;;4.50;;
51836;SDS011;38941;53.254;6.600;2023-11-22T00:51:37;8.27;;;4.32;;
51836;SDS011;38941;53.254;6.600;2023-11-22T00:53:38;8.77;;;4.00;;
51836;SDS011;38941;53.254;6.600;2023-11-22T00:55:41;7.18;;;3.85;;
51836;SDS011;38941;53.254;6.600;2023-11-22T00:57:42;7.75;;;4.00;;
51836;SDS011;38941;53.254;6.600;2023-11-22T00:59:43;7.03;;;3.90;;
51836;SDS011;38941;53.254;6.600;2023-11-22T01:01:44;8.43;;;4.30;;
51836;SDS011;38941;53.254;6.600;2023-11-22T01:03:45;8.07;;;3.95;;
51836;SDS011;38941;53.254;6.600;2023-11-22T01:05:46;9.27;;;3.83;;
51836;SDS011;38941;53.254;6.600;2023-11-22T01:07:49;8.80;;;4.00;;
51836;SDS011;38941;53.254;6.600;2023-11-22T01:09:50;7.35;;;4.13;;
51836;SDS011;38941;53.254;6.600;2023-11-22T01:11:50;8.88;;;4.38;;
51836;SDS011;38941;53.254;6.600;2023-11-22T01:13:51;7.00;;;3.80;;
51836;SDS011;38941;53.254;6.600;2023-11-22T01:15:53;8.50;;;4.20;;
51836;SDS011;38941;53.254;6.600;2023-11-22T01:17:56;7.72;;;3.78;;
51836;SDS011;38941;53.254;6.600;2023-11-22T01:19:57;7.22;;;3.80;;
51836;SDS011;38941;53.254;6.600;2023-11-22T01:21:58;8.23;;;4.00;;
51836;SDS011;38941;53.254;6.600;2023-11-22T01:24:00;10.85;;;4.50;;
51836;SDS011;38941;53.254;6.600;2023-11-22T01:26:02;10.15;;;3.58;;
51836;SDS011;38941;53.254;6.600;2023-11-22T01:28:05;8.30;;;4.82;;
51836;SDS011;38941;53.254;6.600;2023-11-22T01:30:08;8.55;;;4.35;;
51836;SDS011;38941;53.254;6.600;2023-11-22T01:32:10;9.73;;;4.70;;
51836;SDS011;38941;53.254;6.600;2023-11-22T01:34:11;10.40;;;4.20;;
51836;SDS011;38941;53.254;6.600;2023-11-22T01:36:11;9.15;;;4.72;;
51836;SDS011;38941;53.254;6.600;2023-11-22T01:38:12;13.00;;;5.90;;
51836;SDS011;38941;53.254;6.600;2023-11-22T01:40:13;15.32;;;7.32;;
51836;SDS011;38941;53.254;6.600;2023-11-22T01:42:15;13.52;;;6.75;;
51836;SDS011;38941;53.254;6.600;2023-11-22T01:44:15;13.23;;;6.63;;
51836;SDS011;38941;53.254;6.600;2023-11-22T01:46:23;11.65;;;6.10;;
51836;SDS011;38941;53.254;6.600;2023-11-22T01:48:26;12.07;;;5.32;;
51836;SDS011;38941;53.254;6.600;2023-11-22T01:50:27;10.63;;;5.03;;
51836;SDS011;38941;53.254;6.600;2023-11-22T01:52:29;12.57;;;4.90;;
51836;SDS011;38941;53.254;6.600;2023-11-22T01:54:30;11.05;;;5.70;;
51836;SDS011;38941;53.254;6.600;2023-11-22T01:56:31;9.65;;;5.20;;
51836;SDS011;38941;53.254;6.600;2023-11-22T01:58:32;11.45;;;5.45;;
51836;SDS011;38941;53.254;6.600;2023-11-22T02:00:52;11.35;;;5.35;;
51836;SDS011;38941;53.254;6.600;2023-11-22T02:02:53;10.63;;;4.72;;
51836;SDS011;38941;53.254;6.600;2023-11-22T02:04:55;13.60;;;5.88;;
51836;SDS011;38941;53.254;6.600;2023-11-22T02:06:56;9.18;;;4.97;;
51836;SDS011;38941;53.254;6.600;2023-11-22T02:08:57;11.93;;;5.40;;
51836;SDS011;38941;53.254;6.600;2023-11-22T02:11:01;11.48;;;4.80;;
51836;SDS011;38941;53.254;6.600;2023-11-22T02:13:05;11.82;;;4.97;;
51836;SDS011;38941;53.254;6.600;2023-11-22T02:15:07;10.57;;;4.78;;
51836;SDS011;38941;53.254;6.600;2023-11-22T02:17:09;8.60;;;4.75;;
51836;SDS011;38941;53.254;6.600;2023-11-22T02:19:15;9.20;;;4.93;;
51836;SDS011;38941;53.254;6.600;2023-11-22T02:21:18;12.35;;;5.82;;
51836;SDS011;38941;53.254;6.600;2023-11-22T02:23:19;12.20;;;5.10;;
51836;SDS011;38941;53.254;6.600;2023-11-22T02:25:19;13.30;;;5.75;;
51836;SDS011;38941;53.254;6.600;2023-11-22T02:27:21;9.98;;;5.43;;
51836;SDS011;38941;53.254;6.600;2023-11-22T02:29:22;12.02;;;4.70;;
51836;SDS011;38941;53.254;6.600;2023-11-22T02:31:23;11.00;;;5.45;;
51836;SDS011;38941;53.254;6.600;2023-11-22T02:33:24;14.63;;;7.45;;
51836;SDS011;38941;53.254;6.600;2023-11-22T02:35:25;21.60;;;9.00;;
51836;SDS011;38941;53.254;6.600;2023-11-22T02:37:28;24.35;;;10.60;;
51836;SDS011;38941;53.254;6.600;2023-11-22T02:39:31;15.82;;;7.75;;
51836;SDS011;38941;53.254;6.600;2023-11-22T02:41:55;14.30;;;6.72;;
51836;SDS011;38941;53.254;6.600;2023-11-22T02:43:56;17.30;;;7.47;;
51836;SDS011;38941;53.254;6.600;2023-11-22T02:45:58;13.25;;;6.50;;
51836;SDS011;38941;53.254;6.600;2023-11-22T02:47:59;14.43;;;6.40;;
51836;SDS011;38941;53.254;6.600;2023-11-22T02:50:01;12.77;;;5.78;;
51836;SDS011;38941;53.254;6.600;2023-11-22T02:52:11;16.58;;;6.88;;
51836;SDS011;38941;53.254;6.600;2023-11-22T02:54:16;17.63;;;6.25;;
51836;SDS011;38941;53.254;6.600;2023-11-22T02:56:17;15.15;;;6.50;;
51836;SDS011;38941;53.254;6.600;2023-11-22T02:58:21;14.27;;;6.25;;
51836;SDS011;38941;53.254;6.600;2023-11-22T03:00:24;14.25;;;6.30;;
51836;SDS011;38941;53.254;6.600;2023-11-22T03:02:27;14.32;;;5.45;;
51836;SDS011;38941;53.254;6.600;2023-11-22T03:04:28;13.30;;;5.35;;
51836;SDS011;38941;53.254;6.600;2023-11-22T03:06:29;13.77;;;5.60;;
51836;SDS011;38941;53.254;6.600;2023-11-22T03:08:31;14.00;;;6.03;;
51836;SDS011;38941;53.254;6.600;2023-11-22T03:10:33;13.98;;;5.95;;
51836;SDS011;38941;53.254;6.600;2023-11-22T03:12:35;11.85;;;5.90;;
51836;SDS011;38941;53.254;6.600;2023-11-22T03:14:35;12.88;;;5.75;;
51836;SDS011;38941;53.254;6.600;2023-11-22T03:16:38;12.15;;;4.90;;
51836;SDS011;38941;53.254;6.600;2023-11-22T03:18:40;9.90;;;5.35;;
51836;SDS011;38941;53.254;6.600;2023-11-22T03:20:41;13.55;;;5.05;;
51836;SDS011;38941;53.254;6.600;2023-11-22T03:22:42;11.40;;;5.75;;
51836;SDS011;38941;53.254;6.600;2023-11-22T03:24:47;11.18;;;5.90;;
51836;SDS011;38941;53.254;6.600;2023-11-22T03:26:47;13.65;;;5.45;;
51836;SDS011;38941;53.254;6.600;2023-11-22T03:28:48;9.68;;;4.03;;
51836;SDS011;38941;53.254;6.600;2023-11-22T03:30:49;10.45;;;4.63;;
51836;SDS011;38941;53.254;6.600;2023-11-22T03:32:51;13.25;;;4.90;;
51836;SDS011;38941;53.254;6.600;2023-11-22T03:36:58;27.70;;;4.90;;
51836;SDS011;38941;53.254;6.600;2023-11-22T03:38:59;9.50;;;5.03;;
51836;SDS011;38941;53.254;6.600;2023-11-22T03:40:59;10.45;;;4.28;;
51836;SDS011;38941;53.254;6.600;2023-11-22T03:43:01;11.48;;;4.70;;
51836;SDS011;38941;53.254;6.600;2023-11-22T03:45:02;10.18;;;4.15;;
51836;SDS011;38941;53.254;6.600;2023-11-22T03:47:06;9.20;;;4.75;;
51836;SDS011;38941;53.254;6.600;2023-11-22T03:49:07;11.68;;;4.10;;
51836;SDS011;38941;53.254;6.600;2023-11-22T03:51:08;10.65;;;5.15;;
51836;SDS011;38941;53.254;6.600;2023-11-22T03:53:10;11.57;;;5.10;;
51836;SDS011;38941;53.254;6.600;2023-11-22T03:55:11;9.32;;;4.70;;
51836;SDS011;38941;53.254;6.600;2023-11-22T03:57:14;7.57;;;3.85;;
51836;SDS011;38941;53.254;6.600;2023-11-22T03:59:15;10.60;;;4.53;;
51836;SDS011;38941;53.254;6.600;2023-11-22T04:01:16;10.05;;;4.70;;
51836;SDS011;38941;53.254;6.600;2023-11-22T04:03:18;9.57;;;4.25;;
51836;SDS011;38941;53.254;6.600;2023-11-22T04:05:20;9.88;;;4.10;;
51836;SDS011;38941;53.254;6.600;2023-11-22T04:07:22;9.60;;;4.78;;
51836;SDS011;38941;53.254;6.600;2023-11-22T04:09:29;11.55;;;5.85;;
51836;SDS011;38941;53.254;6.600;2023-11-22T04:11:31;8.93;;;4.18;;
51836;SDS011;38941;53.254;6.600;2023-11-22T04:13:40;7.82;;;4.35;;
51836;SDS011;38941;53.254;6.600;2023-11-22T04:15:42;10.07;;;5.28;;
51836;SDS011;38941;53.254;6.600;2023-11-22T04:17:42;8.45;;;4.07;;
51836;SDS011;38941;53.254;6.600;2023-11-22T04:19:45;10.13;;;4.47;;
51836;SDS011;38941;53.254;6.600;2023-11-22T04:21:46;13.85;;;4.50;;
51836;SDS011;38941;53.254;6.600;2023-11-22T04:23:46;10.57;;;4.25;;
51836;SDS011;38941;53.254;6.600;2023-11-22T04:25:49;9.35;;;4.78;;
51836;SDS011;38941;53.254;6.600;2023-11-22T04:27:50;10.95;;;4.85;;
51836;SDS011;38941;53.254;6.600;2023-11-22T04:29:53;10.82;;;3.95;;
51836;SDS011;38941;53.254;6.600;2023-11-22T04:31:54;12.13;;;4.65;;
51836;SDS011;38941;53.254;6.600;2023-11-22T04:33:55;14.55;;;5.28;;
51836;SDS011;38941;53.254;6.600;2023-11-22T04:36:00;10.70;;;4.75;;
51836;SDS011;38941;53.254;6.600;2023-11-22T04:38:02;9.68;;;4.55;;
51836;SDS011;38941;53.254;6.600;2023-11-22T04:40:03;10.43;;;5.00;;
51836;SDS011;38941;53.254;6.600;2023-11-22T04:42:09;9.32;;;4.35;;
51836;SDS011;38941;53.254;6.600;2023-11-22T04:44:10;9.63;;;4.45;;
51836;SDS011;38941;53.254;6.600;2023-11-22T04:46:18;11.02;;;4.15;;
51836;SDS011;38941;53.254;6.600;2023-11-22T04:48:20;12.32;;;4.80;;
51836;SDS011;38941;53.254;6.600;2023-11-22T04:50:22;9.70;;;4.13;;
51836;SDS011;38941;53.254;6.600;2023-11-22T04:52:27;11.57;;;4.70;;
51836;SDS011;38941;53.254;6.600;2023-11-22T04:54:29;10.50;;;4.80;;
51836;SDS011;38941;53.254;6.600;2023-11-22T04:56:31;8.90;;;4.15;;
51836;SDS011;38941;53.254;6.600;2023-11-22T04:58:33;9.98;;;4.07;;
51836;SDS011;38941;53.254;6.600;2023-11-22T05:00:36;12.27;;;5.43;;
51836;SDS011;38941;53.254;6.600;2023-11-22T05:02:39;11.75;;;5.10;;
51836;SDS011;38941;53.254;6.600;2023-11-22T05:04:47;9.57;;;4.38;;
51836;SDS011;38941;53.254;6.600;2023-11-22T05:06:49;9.88;;;4.30;;
51836;SDS011;38941;53.254;6.600;2023-11-22T05:08:52;17.00;;;4.50;;
51836;SDS011;38941;53.254;6.600;2023-11-22T05:11:00;10.90;;;4.53;;
51836;SDS011;38941;53.254;6.600;2023-11-22T05:13:04;8.05;;;4.43;;
51836;SDS011;38941;53.254;6.600;2023-11-22T05:15:06;10.05;;;4.20;;
51836;SDS011;38941;53.254;6.600;2023-11-22T05:17:09;8.90;;;4.20;;
51836;SDS011;38941;53.254;6.600;2023-11-22T05:19:10;10.13;;;4.50;;
51836;SDS011;38941;53.254;6.600;2023-11-22T05:21:12;9.13;;;4.60;;
51836;SDS011;38941;53.254;6.600;2023-11-22T05:23:15;12.35;;;4.45;;
51836;SDS011;38941;53.254;6.600;2023-11-22T05:25:21;11.15;;;4.85;;
51836;SDS011;38941;53.254;6.600;2023-11-22T05:27:31;11.10;;;4.88;;
51836;SDS011;38941;53.254;6.600;2023-11-22T05:29:37;9.57;;;4.50;;
51836;SDS011;38941;53.254;6.600;2023-11-22T05:31:39;7.97;;;4.28;;
51836;SDS011;38941;53.254;6.600;2023-11-22T05:33:41;11.35;;;5.22;;
51836;SDS011;38941;53.254;6.600;2023-11-22T05:35:43;9.98;;;4.35;;
51836;SDS011;38941;53.254;6.600;2023-11-22T05:37:45;12.82;;;5.07;;
51836;SDS011;38941;53.254;6.600;2023-11-22T05:39:46;12.30;;;5.35;;
51836;SDS011;38941;53.254;6.600;2023-11-22T05:41:53;15.13;;;4.72;;
51836;SDS011;38941;53.254;6.600;2023-11-22T05:43:54;13.05;;;5.75;;
51836;SDS011;38941;53.254;6.600;2023-11-22T05:45:59;11.68;;;5.53;;
51836;SDS011;38941;53.254;6.600;2023-11-22T05:48:00;11.18;;;5.53;;
51836;SDS011;38941;53.254;6.600;2023-11-22T05:50:01;15.43;;;5.97;;
51836;SDS011;38941;53.254;6.600;2023-11-22T05:52:02;14.70;;;6.32;;
51836;SDS011;38941;53.254;6.600;2023-11-22T05:54:07;14.60;;;5.95;;
51836;SDS011;38941;53.254;6.600;2023-11-22T05:56:12;16.98;;;5.57;;
51836;SDS011;38941;53.254;6.600;2023-11-22T05:58:14;14.15;;;6.10;;
51836;SDS011;38941;53.254;6.600;2023-11-22T06:00:18;12.88;;;6.38;;
51836;SDS011;38941;53.254;6.600;2023-11-22T06:02:21;15.93;;;6.05;;
51836;SDS011;38941;53.254;6.600;2023-11-22T06:04:23;14.13;;;5.72;;
51836;SDS011;38941;53.254;6.600;2023-11-22T06:06:24;16.90;;;6.43;;
51836;SDS011;38941;53.254;6.600;2023-11-22T06:08:33;11.65;;;5.38;;
51836;SDS011;38941;53.254;6.600;2023-11-22T06:10:37;14.38;;;6.07;;
51836;SDS011;38941;53.254;6.600;2023-11-22T06:12:43;16.38;;;6.43;;
51836;SDS011;38941;53.254;6.600;2023-11-22T06:14:45;18.27;;;6.32;;
51836;SDS011;38941;53.254;6.600;2023-11-22T06:16:46;15.18;;;6.85;;
51836;SDS011;38941;53.254;6.600;2023-11-22T06:18:47;14.93;;;6.43;;
51836;SDS011;38941;53.254;6.600;2023-11-22T06:20:48;14.23;;;6.53;;
51836;SDS011;38941;53.254;6.600;2023-11-22T06:22:48;12.82;;;6.10;;
51836;SDS011;38941;53.254;6.600;2023-11-22T06:24:50;17.00;;;6.93;;
51836;SDS011;38941;53.254;6.600;2023-11-22T06:26:58;18.65;;;7.32;;
51836;SDS011;38941;53.254;6.600;2023-11-22T06:29:12;16.63;;;6.88;;
51836;SDS011;38941;53.254;6.600;2023-11-22T06:31:13;16.05;;;6.55;;
51836;SDS011;38941;53.254;6.600;2023-11-22T06:33:15;18.45;;;7.00;;
51836;SDS011;38941;53.254;6.600;2023-11-22T06:35:19;15.60;;;7.03;;
51836;SDS011;38941;53.254;6.600;2023-11-22T06:37:23;16.85;;;7.18;;
51836;SDS011;38941;53.254;6.600;2023-11-22T06:39:27;17.75;;;6.75;;
51836;SDS011;38941;53.254;6.600;2023-11-22T06:41:34;19.63;;;7.72;;
51836;SDS011;38941;53.254;6.600;2023-11-22T06:43:35;16.48;;;7.32;;
51836;SDS011;38941;53.254;6.600;2023-11-22T06:45:36;16.55;;;6.65;;
51836;SDS011;38941;53.254;6.600;2023-11-22T06:47:39;18.45;;;7.15;;
51836;SDS011;38941;53.254;6.600;2023-11-22T06:49:40;17.92;;;7.50;;
51836;SDS011;38941;53.254;6.600;2023-11-22T06:51:40;16.40;;;7.25;;
51836;SDS011;38941;53.254;6.600;2023-11-22T06:53:41;18.65;;;7.10;;
51836;SDS011;38941;53.254;6.600;2023-11-22T06:55:43;16.85;;;7.57;;
51836;SDS011;38941;53.254;6.600;2023-11-22T06:57:48;18.25;;;7.35;;
51836;SDS011;38941;53.254;6.600;2023-11-22T06:59:55;23.40;;;8.43;;
51836;SDS011;38941;53.254;6.600;2023-11-22T07:01:58;18.92;;;7.68;;
51836;SDS011;38941;53.254;6.600;2023-11-22T07:04:06;24.48;;;8.65;;
51836;SDS011;38941;53.254;6.600;2023-11-22T07:06:15;25.73;;;8.63;;
51836;SDS011;38941;53.254;6.600;2023-11-22T07:08:16;21.38;;;8.43;;
51836;SDS011;38941;53.254;6.600;2023-11-22T07:10:17;20.17;;;7.65;;
51836;SDS011;38941;53.254;6.600;2023-11-22T07:12:24;21.20;;;8.90;;
51836;SDS011;38941;53.254;6.600;2023-11-22T07:14:27;22.48;;;8.77;;
51836;SDS011;38941;53.254;6.600;2023-11-22T07:16:32;28.73;;;8.55;;
51836;SDS011;38941;53.254;6.600;2023-11-22T07:18:34;24.08;;;9.75;;
51836;SDS011;38941;53.254;6.600;2023-11-22T07:20:40;20.95;;;8.05;;
51836;SDS011;38941;53.254;6.600;2023-11-22T07:22:44;21.52;;;9.30;;
51836;SDS011;38941;53.254;6.600;2023-11-22T07:24:45;22.73;;;9.52;;
51836;SDS011;38941;53.254;6.600;2023-11-22T07:26:54;19.95;;;8.20;;
51836;SDS011;38941;53.254;6.600;2023-11-22T07:28:55;22.13;;;8.60;;
51836;SDS011;38941;53.254;6.600;2023-11-22T07:30:59;20.48;;;7.95;;
51836;SDS011;38941;53.254;6.600;2023-11-22T07:33:09;25.83;;;8.95;;
51836;SDS011;38941;53.254;6.600;2023-11-22T07:35:14;25.25;;;8.82;;
51836;SDS011;38941;53.254;6.600;2023-11-22T07:37:16;23.83;;;10.90;;
51836;SDS011;38941;53.254;6.600;2023-11-22T07:39:18;25.73;;;9.88;;
51836;SDS011;38941;53.254;6.600;2023-11-22T07:41:20;25.65;;;8.82;;
51836;SDS011;38941;53.254;6.600;2023-11-22T07:43:26;22.13;;;9.68;;
51836;SDS011;38941;53.254;6.600;2023-11-22T07:45:27;19.67;;;8.70;;
51836;SDS011;38941;53.254;6.600;2023-11-22T07:47:31;21.25;;;8.80;;
51836;SDS011;38941;53.254;6.600;2023-11-22T07:49:32;28.30;;;9.75;;
51836;SDS011;38941;53.254;6.600;2023-11-22T07:51:36;22.33;;;8.25;;
51836;SDS011;38941;53.254;6.600;2023-11-22T07:53:38;27.33;;;8.85;;
51836;SDS011;38941;53.254;6.600;2023-11-22T07:55:41;20.38;;;8.88;;
51836;SDS011;38941;53.254;6.600;2023-11-22T07:57:43;24.10;;;9.15;;
51836;SDS011;38941;53.254;6.600;2023-11-22T07:59:45;22.10;;;9.02;;
51836;SDS011;38941;53.254;6.600;2023-11-22T08:01:49;23.23;;;10.20;;
51836;SDS011;38941;53.254;6.600;2023-11-22T08:03:51;21.42;;;9.23;;
51836;SDS011;38941;53.254;6.600;2023-11-22T08:05:52;19.30;;;8.60;;
51836;SDS011;38941;53.254;6.600;2023-11-22T08:07:58;26.08;;;9.93;;
51836;SDS011;38941;53.254;6.600;2023-11-22T08:09:59;24.83;;;7.90;;
51836;SDS011;38941;53.254;6.600;2023-11-22T08:12:10;20.42;;;8.48;;
51836;SDS011;38941;53.254;6.600;2023-11-22T08:14:17;25.90;;;10.30;;
51836;SDS011;38941;53.254;6.600;2023-11-22T08:16:18;27.88;;;10.68;;
51836;SDS011;38941;53.254;6.600;2023-11-22T08:18:20;22.38;;;8.75;;
51836;SDS011;38941;53.254;6.600;2023-11-22T08:20:22;20.00;;;8.38;;
51836;SDS011;38941;53.254;6.600;2023-11-22T08:22:26;27.42;;;9.60;;
51836;SDS011;38941;53.254;6.600;2023-11-22T08:24:30;22.40;;;9.32;;
51836;SDS011;38941;53.254;6.600;2023-11-22T08:26:30;27.00;;;10.15;;
51836;SDS011;38941;53.254;6.600;2023-11-22T08:28:31;19.17;;;8.93;;
51836;SDS011;38941;53.254;6.600;2023-11-22T08:30:35;21.80;;;8.60;;
51836;SDS011;38941;53.254;6.600;2023-11-22T08:32:35;18.88;;;9.00;;
51836;SDS011;38941;53.254;6.600;2023-11-22T08:34:37;17.08;;;8.98;;
51836;SDS011;38941;53.254;6.600;2023-11-22T08:36:40;22.70;;;8.98;;
51836;SDS011;38941;53.254;6.600;2023-11-22T08:38:40;23.98;;;8.50;;
51836;SDS011;38941;53.254;6.600;2023-11-22T08:40:45;24.58;;;9.23;;
51836;SDS011;38941;53.254;6.600;2023-11-22T08:42:49;22.02;;;9.43;;
51836;SDS011;38941;53.254;6.600;2023-11-22T08:44:50;20.95;;;7.38;;
51836;SDS011;38941;53.254;6.600;2023-11-22T08:46:52;23.45;;;9.55;;
51836;SDS011;38941;53.254;6.600;2023-11-22T08:48:54;22.40;;;9.32;;
51836;SDS011;38941;53.254;6.600;2023-11-22T08:50:58;17.92;;;7.70;;
51836;SDS011;38941;53.254;6.600;2023-11-22T08:53:00;22.27;;;9.02;;
51836;SDS011;38941;53.254;6.600;2023-11-22T08:55:01;19.40;;;7.70;;
51836;SDS011;38941;53.254;6.600;2023-11-22T08:57:05;21.23;;;7.53;;
51836;SDS011;38941;53.254;6.600;2023-11-22T08:59:06;16.65;;;7.25;;
51836;SDS011;38941;53.254;6.600;2023-11-22T09:01:07;19.15;;;8.95;;
51836;SDS011;38941;53.254;6.600;2023-11-22T09:03:08;16.55;;;6.70;;
51836;SDS011;38941;53.254;6.600;2023-11-22T09:05:12;25.65;;;9.57;;
51836;SDS011;38941;53.254;6.600;2023-11-22T09:07:12;20.92;;;8.65;;
51836;SDS011;38941;53.254;6.600;2023-11-22T09:09:15;21.45;;;8.90;;
51836;SDS011;38941;53.254;6.600;2023-11-22T09:11:22;20.02;;;7.45;;
51836;SDS011;38941;53.254;6.600;2023-11-22T09:13:23;23.23;;;8.65;;
51836;SDS011;38941;53.254;6.600;2023-11-22T09:15:25;16.98;;;7.47;;
51836;SDS011;38941;53.254;6.600;2023-11-22T09:17:28;18.23;;;7.35;;
51836;SDS011;38941;53.254;6.600;2023-11-22T09:19:29;15.95;;;7.28;;
51836;SDS011;38941;53.254;6.600;2023-11-22T09:21:33;16.13;;;7.13;;
51836;SDS011;38941;53.254;6.600;2023-11-22T09:23:39;20.30;;;8.77;;
51836;SDS011;38941;53.254;6.600;2023-11-22T09:25:43;16.63;;;7.93;;
51836;SDS011;38941;53.254;6.600;2023-11-22T09:27:47;16.80;;;7.10;;
51836;SDS011;38941;53.254;6.600;2023-11-22T09:29:51;16.65;;;7.32;;
51836;SDS011;38941;53.254;6.600;2023-11-22T09:31:53;16.52;;;7.45;;
51836;SDS011;38941;53.254;6.600;2023-11-22T09:33:55;15.60;;;7.65;;
51836;SDS011;38941;53.254;6.600;2023-11-22T09:35:57;16.50;;;7.32;;
51836;SDS011;38941;53.254;6.600;2023-11-22T09:38:05;16.55;;;7.18;;
51836;SDS011;38941;53.254;6.600;2023-11-22T09:40:11;17.50;;;7.40;;
51836;SDS011;38941;53.254;6.600;2023-11-22T09:42:14;17.63;;;7.03;;
51836;SDS011;38941;53.254;6.600;2023-11-22T09:44:14;20.45;;;8.38;;
51836;SDS011;38941;53.254;6.600;2023-11-22T09:46:16;14.48;;;6.72;;
51836;SDS011;38941;53.254;6.600;2023-11-22T09:48:21;20.13;;;7.93;;
51836;SDS011;38941;53.254;6.600;2023-11-22T09:52:35;15.52;;;7.13;;
51836;SDS011;38941;53.254;6.600;2023-11-22T09:54:38;17.58;;;6.85;;
51836;SDS011;38941;53.254;6.600;2023-11-22T09:56:42;15.73;;;7.30;;
51836;SDS011;38941;53.254;6.600;2023-11-22T09:58:52;18.20;;;6.82;;
51836;SDS011;38941;53.254;6.600;2023-11-22T10:00:57;15.48;;;6.53;;
51836;SDS011;38941;53.254;6.600;2023-11-22T10:02:58;18.80;;;7.25;;
51836;SDS011;38941;53.254;6.600;2023-11-22T10:05:02;20.25;;;7.97;;
51836;SDS011;38941;53.254;6.600;2023-11-22T10:07:12;16.27;;;7.28;;
51836;SDS011;38941;53.254;6.600;2023-11-22T10:09:14;18.63;;;7.75;;
51836;SDS011;38941;53.254;6.600;2023-11-22T10:11:16;15.32;;;7.22;;
51836;SDS011;38941;53.254;6.600;2023-11-22T10:13:19;14.85;;;6.90;;
51836;SDS011;38941;53.254;6.600;2023-11-22T10:15:27;16.65;;;6.72;;
51836;SDS011;38941;53.254;6.600;2023-11-22T10:17:29;15.30;;;7.30;;
51836;SDS011;38941;53.254;6.600;2023-11-22T10:19:32;14.85;;;6.32;;
51836;SDS011;38941;53.254;6.600;2023-11-22T10:21:34;13.40;;;6.22;;
51836;SDS011;38941;53.254;6.600;2023-11-22T10:23:36;16.85;;;7.97;;
51836;SDS011;38941;53.254;6.600;2023-11-22T10:25:44;14.35;;;6.57;;
51836;SDS011;38941;53.254;6.600;2023-11-22T10:27:49;15.35;;;5.97;;
51836;SDS011;38941;53.254;6.600;2023-11-22T10:29:51;15.38;;;6.72;;
51836;SDS011;38941;53.254;6.600;2023-11-22T10:31:52;15.88;;;7.07;;
51836;SDS011;38941;53.254;6.600;2023-11-22T10:33:54;14.00;;;6.90;;
51836;SDS011;38941;53.254;6.600;2023-11-22T10:35:58;13.13;;;5.82;;
51836;SDS011;38941;53.254;6.600;2023-11-22T10:38:01;16.17;;;7.07;;
51836;SDS011;38941;53.254;6.600;2023-11-22T10:40:04;12.98;;;6.13;;
51836;SDS011;38941;53.254;6.600;2023-11-22T10:42:08;15.32;;;6.10;;
51836;SDS011;38941;53.254;6.600;2023-11-22T10:44:10;15.27;;;6.30;;
51836;SDS011;38941;53.254;6.600;2023-11-22T10:46:12;14.38;;;6.65;;
51836;SDS011;38941;53.254;6.600;2023-11-22T10:48:14;13.68;;;6.07;;
51836;SDS011;38941;53.254;6.600;2023-11-22T10:50:17;13.48;;;5.50;;
51836;SDS011;38941;53.254;6.600;2023-11-22T10:52:24;8.82;;;4.95;;
51836;SDS011;38941;53.254;6.600;2023-11-22T10:54:28;12.52;;;6.32;;
51836;SDS011;38941;53.254;6.600;2023-11-22T10:56:33;16.00;;;6.47;;
51836;SDS011;38941;53.254;6.600;2023-11-22T10:58:45;11.45;;;4.85;;
51836;SDS011;38941;53.254;6.600;2023-11-22T11:00:48;12.05;;;4.97;;
51836;SDS011;38941;53.254;6.600;2023-11-22T11:02:51;10.88;;;5.28;;
51836;SDS011;38941;53.254;6.600;2023-11-22T11:05:08;10.43;;;4.82;;
51836;SDS011;38941;53.254;6.600;2023-11-22T11:07:18;8.50;;;3.70;;
51836;SDS011;38941;53.254;6.600;2023-11-22T11:09:23;9.73;;;5.07;;
51836;SDS011;38941;53.254;6.600;2023-11-22T11:11:29;8.95;;;4.55;;
51836;SDS011;38941;53.254;6.600;2023-11-22T11:13:32;9.13;;;4.32;;
51836;SDS011;38941;53.254;6.600;2023-11-22T11:15:33;10.27;;;4.60;;
51836;SDS011;38941;53.254;6.600;2023-11-22T11:17:35;11.32;;;4.53;;
51836;SDS011;38941;53.254;6.600;2023-11-22T11:19:36;8.40;;;4.40;;
51836;SDS011;38941;53.254;6.600;2023-11-22T11:21:38;9.38;;;4.38;;
51836;SDS011;38941;53.254;6.600;2023-11-22T11:23:39;7.22;;;3.63;;
51836;SDS011;38941;53.254;6.600;2023-11-22T11:25:41;11.30;;;4.47;;
51836;SDS011;38941;53.254;6.600;2023-11-22T11:27:44;7.80;;;3.70;;
51836;SDS011;38941;53.254;6.600;2023-11-22T11:29:55;6.00;;;3.50;;
51836;SDS011;38941;53.254;6.600;2023-11-22T11:31:57;7.03;;;3.30;;
51836;SDS011;38941;53.254;6.600;2023-11-22T11:33:58;7.30;;;3.28;;
51836;SDS011;38941;53.254;6.600;2023-11-22T11:36:01;8.85;;;4.25;;
51836;SDS011;38941;53.254;6.600;2023-11-22T11:38:03;6.63;;;3.35;;
51836;SDS011;38941;53.254;6.600;2023-11-22T11:40:24;6.88;;;3.30;;
51836;SDS011;38941;53.254;6.600;2023-11-22T11:42:26;7.68;;;3.50;;
51836;SDS011;38941;53.254;6.600;2023-11-22T11:44:28;6.97;;;3.70;;
51836;SDS011;38941;53.254;6.600;2023-11-22T11:46:31;6.68;;;3.30;;
51836;SDS011;38941;53.254;6.600;2023-11-22T11:48:33;7.20;;;3.63;;
51836;SDS011;38941;53.254;6.600;2023-11-22T11:50:36;5.90;;;3.42;;
51836;SDS011;38941;53.254;6.600;2023-11-22T11:52:38;7.53;;;3.53;;
51836;SDS011;38941;53.254;6.600;2023-11-22T11:54:41;7.85;;;3.58;;
51836;SDS011;38941;53.254;6.600;2023-11-22T11:56:41;7.10;;;3.63;;
51836;SDS011;38941;53.254;6.600;2023-11-22T11:58:44;7.68;;;3.00;;
51836;SDS011;38941;53.254;6.600;2023-11-22T12:00:46;7.60;;;3.30;;
51836;SDS011;38941;53.254;6.600;2023-11-22T12:02:48;6.72;;;3.17;;
51836;SDS011;38941;53.254;6.600;2023-11-22T12:04:49;7.45;;;3.22;;
51836;SDS011;38941;53.254;6.600;2023-11-22T12:06:50;7.43;;;2.97;;
51836;SDS011;38941;53.254;6.600;2023-11-22T12:08:54;7.80;;;4.13;;
51836;SDS011;38941;53.254;6.600;2023-11-22T12:10:56;9.63;;;2.88;;
51836;SDS011;38941;53.254;6.600;2023-11-22T12:12:58;7.95;;;3.15;;
51836;SDS011;38941;53.254;6.600;2023-11-22T12:15:01;9.20;;;3.47;;
51836;SDS011;38941;53.254;6.600;2023-11-22T12:17:04;9.77;;;4.05;;